createdAt,value
2023-02-05T00:02:23.746Z,22.63
2023-02-05T00:04:53.420Z,24.10
2023-02-05T00:07:21.661Z,24.35
2023-02-05T00:09:51.987Z,21.08
2023-02-05T00:12:20.173Z,22.38
2023-02-05T00:14:48.413Z,20.05
2023-02-05T00:17:16.996Z,25.80
2023-02-05T00:19:45.245Z,22.80
2023-02-05T00:22:13.462Z,22.00
2023-02-05T00:24:41.903Z,19.45
2023-02-05T00:27:11.469Z,21.02
2023-02-05T00:29:39.861Z,21.52
2023-02-05T00:32:08.181Z,20.83
2023-02-05T00:34:36.606Z,21.80
2023-02-05T00:37:04.949Z,21.67
2023-02-05T00:39:33.585Z,19.20
2023-02-05T00:42:01.799Z,18.02
2023-02-05T00:44:31.400Z,18.08
2023-02-05T00:46:59.815Z,19.33
2023-02-05T00:49:28.107Z,15.93
2023-02-05T00:51:56.394Z,14.80
2023-02-05T00:54:24.874Z,14.70
2023-02-05T00:56:53.078Z,13.23
2023-02-05T00:59:22.312Z,13.77
2023-02-05T01:01:53.501Z,13.10
2023-02-05T01:04:21.899Z,11.77
2023-02-05T01:06:50.090Z,11.93
2023-02-05T01:09:18.460Z,12.90
2023-02-05T01:11:46.704Z,15.10
2023-02-05T01:14:14.974Z,11.27
2023-02-05T01:16:43.776Z,11.00
2023-02-05T01:19:13.349Z,12.40
2023-02-05T01:21:41.664Z,12.70
2023-02-05T01:24:10.338Z,12.05
2023-02-05T01:26:38.562Z,11.65
2023-02-05T01:29:06.914Z,10.65
2023-02-05T01:31:35.576Z,11.13
2023-02-05T01:34:03.989Z,12.52
2023-02-05T01:36:33.588Z,10.73
2023-02-05T01:39:01.936Z,11.65
2023-02-05T01:41:30.431Z,12.35
2023-02-05T01:44:09.812Z,9.65
2023-02-05T01:46:40.659Z,11.70
2023-02-05T01:49:12.330Z,10.18
2023-02-05T01:51:42.667Z,10.65
2023-02-05T01:54:11.141Z,10.05
2023-02-05T01:56:43.015Z,11.57
2023-02-05T01:59:15.937Z,11.25
2023-02-05T02:01:45.395Z,15.00
2023-02-05T02:04:16.406Z,12.63
2023-02-05T02:06:46.488Z,10.70
2023-02-05T02:09:14.765Z,10.73
2023-02-05T02:11:44.761Z,11.93
2023-02-05T02:14:14.944Z,11.20
2023-02-05T02:16:43.220Z,12.35
2023-02-05T02:19:18.958Z,11.50
2023-02-05T02:22:18.514Z,15.43
2023-02-05T02:25:28.568Z,14.45
2023-02-05T02:28:00.736Z,11.45
2023-02-05T02:30:36.018Z,13.35
2023-02-05T02:33:10.153Z,12.15
2023-02-05T02:35:50.473Z,15.23
2023-02-05T02:38:23.284Z,14.30
2023-02-05T02:40:54.472Z,12.43
2023-02-05T02:43:27.850Z,11.93
2023-02-05T02:46:02.907Z,14.35
2023-02-05T02:48:34.065Z,14.73
2023-02-05T02:51:04.679Z,15.45
2023-02-05T02:53:37.832Z,14.23
2023-02-05T02:56:08.827Z,18.48
2023-02-05T02:58:43.671Z,14.40
2023-02-05T03:01:13.442Z,13.80
2023-02-05T03:03:46.135Z,15.75
2023-02-05T03:06:15.881Z,16.63
2023-02-05T03:08:50.839Z,15.20
2023-02-05T03:11:19.517Z,16.83
2023-02-05T03:13:49.660Z,16.38
2023-02-05T03:16:21.606Z,18.42
2023-02-05T03:18:50.543Z,18.58
2023-02-05T03:21:23.946Z,19.40
2023-02-05T03:23:52.834Z,19.58
2023-02-05T03:26:28.659Z,19.65
2023-02-05T03:29:01.612Z,20.75
2023-02-05T03:31:37.477Z,21.65
2023-02-05T03:34:20.684Z,22.23
2023-02-05T03:37:02.065Z,21.42
2023-02-05T03:39:38.660Z,20.90
2023-02-05T03:42:19.344Z,25.20
2023-02-05T03:45:25.552Z,19.63
2023-02-05T03:48:13.524Z,21.50
2023-02-05T03:50:48.068Z,18.60
2023-02-05T03:53:23.383Z,21.65
2023-02-05T03:55:58.386Z,23.50
2023-02-05T03:58:33.227Z,23.08
2023-02-05T04:01:03.583Z,21.67
2023-02-05T04:03:31.831Z,20.73
2023-02-05T04:06:00.389Z,21.90
2023-02-05T04:08:28.922Z,23.13
2023-02-05T04:10:57.118Z,23.63
2023-02-05T04:13:25.535Z,20.83
2023-02-05T04:15:53.972Z,21.20
2023-02-05T04:18:23.590Z,22.15
2023-02-05T04:20:52.117Z,21.77
2023-02-05T04:23:20.459Z,24.92
2023-02-05T04:25:48.669Z,20.98
2023-02-05T04:28:17.023Z,21.58
2023-02-05T04:30:45.558Z,21.08
2023-02-05T04:33:13.844Z,23.17
2023-02-05T04:35:43.738Z,23.08
2023-02-05T04:38:12.184Z,25.92
2023-02-05T04:40:40.395Z,23.20
2023-02-05T04:43:09.548Z,22.95
2023-02-05T04:45:37.854Z,22.27
2023-02-05T04:48:06.743Z,22.65
2023-02-05T04:50:35.668Z,26.05
2023-02-05T04:53:05.455Z,26.50
2023-02-05T04:55:34.260Z,23.75
2023-02-05T04:58:03.302Z,27.08
2023-02-05T05:00:31.775Z,29.80
2023-02-05T05:03:00.034Z,27.90
2023-02-05T05:05:28.471Z,26.33
2023-02-05T05:07:56.611Z,28.77
2023-02-05T05:10:26.234Z,28.55
2023-02-05T05:12:54.644Z,26.75
2023-02-05T05:15:23.007Z,33.13
2023-02-05T05:17:51.136Z,30.77
2023-02-05T05:20:19.778Z,32.00
2023-02-05T05:22:48.151Z,34.70
2023-02-05T05:25:16.590Z,34.60
2023-02-05T05:27:46.289Z,33.83
2023-02-05T05:30:15.386Z,35.25
2023-02-05T05:32:43.554Z,31.73
2023-02-05T05:35:12.218Z,37.92
2023-02-05T05:37:40.621Z,34.75
2023-02-05T05:40:28.937Z,38.40
2023-02-05T05:43:16.223Z,38.22
2023-02-05T05:45:44.630Z,37.03
2023-02-05T05:48:12.947Z,31.73
2023-02-05T05:50:41.163Z,31.85
2023-02-05T05:53:09.619Z,29.67
2023-02-05T05:55:38.103Z,28.20
2023-02-05T05:58:07.731Z,27.83
2023-02-05T06:00:36.501Z,24.90
2023-02-05T06:03:05.106Z,23.67
2023-02-05T06:05:34.508Z,17.98
2023-02-05T06:08:03.060Z,16.67
2023-02-05T06:10:33.051Z,17.08
2023-02-05T06:13:01.497Z,15.48
2023-02-05T06:15:31.215Z,11.32
2023-02-05T06:17:59.584Z,11.80
2023-02-05T06:20:27.822Z,12.23
2023-02-05T06:22:56.241Z,13.90
2023-02-05T06:25:24.647Z,13.63
2023-02-05T06:27:52.942Z,10.80
2023-02-05T06:30:21.465Z,15.32
2023-02-05T06:32:51.136Z,15.63
2023-02-05T06:35:19.885Z,12.75
2023-02-05T06:37:48.306Z,15.20
2023-02-05T06:40:21.086Z,19.95
2023-02-05T06:42:49.797Z,15.00
2023-02-05T06:45:18.227Z,22.08
2023-02-05T06:47:46.422Z,16.80
2023-02-05T06:50:16.162Z,12.52
2023-02-05T06:52:44.415Z,14.82
2023-02-05T06:55:12.668Z,16.02
2023-02-05T06:57:41.083Z,15.35
2023-02-05T07:00:11.515Z,15.60
2023-02-05T07:02:39.810Z,15.38
2023-02-05T07:05:08.820Z,13.38
2023-02-05T07:07:38.478Z,16.15
2023-02-05T07:10:07.188Z,15.43
2023-02-05T07:12:35.633Z,16.60
2023-02-05T07:15:04.270Z,17.30
2023-02-05T07:17:32.443Z,17.10
2023-02-05T07:20:01.367Z,16.08
2023-02-05T07:22:29.914Z,18.55
2023-02-05T07:24:59.482Z,8.90
2023-02-05T07:27:28.082Z,10.98
2023-02-05T07:29:56.616Z,15.70
2023-02-05T07:32:24.930Z,14.93
2023-02-05T07:34:53.668Z,14.43
2023-02-05T07:37:21.964Z,16.83
2023-02-05T07:39:50.238Z,20.23
2023-02-05T07:42:19.919Z,18.92
2023-02-05T07:44:48.440Z,16.58
2023-02-05T07:47:16.596Z,15.30
2023-02-05T07:49:45.629Z,14.02
2023-02-05T07:52:13.878Z,11.13
2023-02-05T07:54:42.293Z,18.58
2023-02-05T07:57:11.098Z,17.02
2023-02-05T07:59:41.035Z,16.33
2023-02-05T08:02:10.355Z,14.85
2023-02-05T08:04:39.009Z,18.13
2023-02-05T08:07:07.325Z,16.02
2023-02-05T08:09:35.543Z,14.27
2023-02-05T08:12:04.198Z,21.02
2023-02-05T08:14:32.501Z,16.75
2023-02-05T08:17:02.086Z,18.10
2023-02-05T08:19:30.888Z,21.42
2023-02-05T08:21:59.170Z,16.27
2023-02-05T08:24:27.468Z,16.75
2023-02-05T08:26:55.932Z,22.00
2023-02-05T08:29:24.303Z,18.35
2023-02-05T08:31:52.538Z,15.50
2023-02-05T08:34:22.218Z,22.30
2023-02-05T08:36:50.580Z,17.80
2023-02-05T08:39:18.820Z,18.58
2023-02-05T08:41:47.095Z,24.50
2023-02-05T08:44:15.418Z,16.15
2023-02-05T08:46:49.823Z,20.17
2023-02-05T08:49:19.001Z,20.48
2023-02-05T08:51:48.749Z,19.20
2023-02-05T08:54:17.100Z,21.35
2023-02-05T08:56:47.003Z,18.15
2023-02-05T08:59:15.442Z,23.17
2023-02-05T09:01:44.233Z,22.60
2023-02-05T09:04:15.667Z,23.67
2023-02-05T09:06:44.215Z,21.63
2023-02-05T09:09:14.776Z,18.52
2023-02-05T09:11:43.625Z,21.20
2023-02-05T09:14:12.189Z,23.65
2023-02-05T09:16:41.205Z,23.42
2023-02-05T09:19:09.793Z,19.52
2023-02-05T09:21:37.961Z,22.63
2023-02-05T09:24:06.928Z,25.08
2023-02-05T09:26:37.603Z,27.17
2023-02-05T09:29:05.813Z,27.08
2023-02-05T09:31:34.468Z,26.30
2023-02-05T09:34:04.105Z,24.52
2023-02-05T09:36:32.332Z,26.77
2023-02-05T09:39:14.036Z,27.45
2023-02-05T09:41:57.281Z,24.23
2023-02-05T09:44:42.950Z,24.65
2023-02-05T09:47:17.609Z,33.28
2023-02-05T09:49:54.706Z,27.30
2023-02-05T09:52:28.338Z,26.17
2023-02-05T09:57:34.486Z,23.10
2023-02-05T10:00:03.816Z,26.35
2023-02-05T10:02:38.684Z,29.55
2023-02-05T10:05:15.314Z,22.23
2023-02-05T10:07:51.071Z,24.05
2023-02-05T10:10:26.811Z,29.45
2023-02-05T10:13:24.367Z,27.05
2023-02-05T10:16:08.176Z,27.33
2023-02-05T10:18:47.727Z,19.45
2023-02-05T10:21:33.477Z,25.65
2023-02-05T10:24:27.964Z,28.80
2023-02-05T10:27:05.845Z,26.45
2023-02-05T10:29:42.091Z,27.52
2023-02-05T10:32:35.423Z,25.13
2023-02-05T10:35:19.798Z,25.67
2023-02-05T10:37:53.010Z,22.55
2023-02-05T10:40:24.727Z,22.13
2023-02-05T10:42:58.381Z,19.58
2023-02-05T10:48:25.645Z,20.55
2023-02-05T10:50:59.036Z,22.45
2023-02-05T10:53:28.803Z,26.23
2023-02-05T10:55:59.018Z,25.83
2023-02-05T10:58:40.236Z,22.20
2023-02-05T11:01:15.736Z,25.58
2023-02-05T11:03:54.971Z,26.08
2023-02-05T11:06:26.564Z,22.67
2023-02-05T11:08:55.256Z,21.55
2023-02-05T11:11:27.989Z,17.63
2023-02-05T11:13:58.841Z,22.40
2023-02-05T11:16:38.555Z,26.63
2023-02-05T11:19:19.585Z,23.17
2023-02-05T11:21:52.203Z,22.58
2023-02-05T11:24:30.513Z,22.25
2023-02-05T11:27:28.818Z,19.70
2023-02-05T11:30:00.088Z,23.35
2023-02-05T11:32:37.981Z,26.08
2023-02-05T11:35:20.920Z,22.42
2023-02-05T11:37:51.768Z,25.60
2023-02-05T11:40:26.442Z,22.95
2023-02-05T11:43:05.386Z,24.73
2023-02-05T11:45:35.761Z,21.15
2023-02-05T11:48:07.741Z,20.52
2023-02-05T11:50:36.538Z,21.65
2023-02-05T11:53:14.434Z,25.80
2023-02-05T11:55:44.359Z,19.77
2023-02-05T11:58:34.915Z,25.17
2023-02-05T12:01:07.959Z,23.60
2023-02-05T12:03:38.169Z,22.90
2023-02-05T12:06:13.864Z,21.20
2023-02-05T12:08:49.345Z,20.95
2023-02-05T12:11:29.884Z,25.63
2023-02-05T12:14:06.648Z,22.40
2023-02-05T12:16:48.738Z,21.77
2023-02-05T12:19:23.468Z,21.45
2023-02-05T12:22:00.011Z,20.77
2023-02-05T12:24:48.757Z,19.73
2023-02-05T12:27:31.168Z,21.42
2023-02-05T12:30:22.138Z,27.02
2023-02-05T12:32:59.283Z,20.17
2023-02-05T12:35:47.201Z,26.70
2023-02-05T12:38:32.438Z,21.30
2023-02-05T12:41:14.003Z,21.02
2023-02-05T12:43:46.456Z,21.35
2023-02-05T12:46:37.495Z,20.27
2023-02-05T12:49:19.852Z,24.27
2023-02-05T12:52:04.680Z,22.05
2023-02-05T12:54:56.058Z,16.52
2023-02-05T12:57:28.129Z,28.63
2023-02-05T13:00:02.844Z,20.95
2023-02-05T13:02:36.070Z,24.27
2023-02-05T13:05:17.302Z,24.42
2023-02-05T13:07:53.722Z,22.70
2023-02-05T13:10:26.994Z,25.10
2023-02-05T13:13:00.636Z,23.50
2023-02-05T13:18:02.750Z,23.45
2023-02-05T13:20:59.769Z,23.63
2023-02-05T13:23:48.580Z,19.13
2023-02-05T13:26:36.277Z,21.10
2023-02-05T13:29:10.367Z,24.92
2023-02-05T13:31:42.255Z,21.30
2023-02-05T13:34:14.201Z,22.40
2023-02-05T13:37:13.726Z,24.42
2023-02-05T13:40:05.916Z,29.27
2023-02-05T13:43:12.274Z,26.85
2023-02-05T13:46:12.804Z,27.02
2023-02-05T13:49:19.009Z,23.20
2023-02-05T13:52:08.055Z,18.48
2023-02-05T13:55:01.337Z,21.63
2023-02-05T13:58:03.170Z,20.60
2023-02-05T14:00:32.057Z,23.85
2023-02-05T14:03:05.823Z,23.95
2023-02-05T14:05:37.348Z,26.08
2023-02-05T14:08:07.054Z,22.35
2023-02-05T14:10:40.457Z,26.00
2023-02-05T14:13:18.440Z,19.55
2023-02-05T14:15:47.172Z,19.33
2023-02-05T14:18:49.090Z,27.05
2023-02-05T14:21:58.818Z,26.67
2023-02-05T14:24:39.193Z,24.23
2023-02-05T14:27:43.498Z,18.05
2023-02-05T14:30:37.862Z,20.48
2023-02-05T14:33:28.743Z,23.13
2023-02-05T14:35:59.104Z,21.02
2023-02-05T14:38:33.087Z,17.30
2023-02-05T14:41:05.541Z,22.42
2023-02-05T14:43:35.989Z,25.15
2023-02-05T14:46:07.934Z,15.85
2023-02-05T14:48:43.717Z,22.00
2023-02-05T14:51:22.276Z,25.58
2023-02-05T14:53:57.418Z,26.58
2023-02-05T14:56:31.791Z,20.83
2023-02-05T14:59:05.192Z,22.10
2023-02-05T15:01:46.796Z,26.58
2023-02-05T15:04:39.910Z,24.95
2023-02-05T15:07:14.126Z,26.20
2023-02-05T15:09:46.905Z,22.02
2023-02-05T15:12:51.807Z,17.13
2023-02-05T15:15:35.169Z,28.50
2023-02-05T15:18:16.194Z,23.27
2023-02-05T15:20:49.156Z,21.48
2023-02-05T15:23:35.617Z,23.48
2023-02-05T15:26:07.420Z,22.50
2023-02-05T15:28:40.623Z,23.13
2023-02-05T15:31:22.321Z,23.95
2023-02-05T15:33:59.401Z,25.10
2023-02-05T15:36:33.709Z,26.83
2023-02-05T15:39:27.318Z,21.00
2023-02-05T15:41:58.843Z,27.92
2023-02-05T15:44:30.814Z,26.33
2023-02-05T15:47:01.463Z,24.73
2023-02-05T15:49:39.379Z,23.13
2023-02-05T15:52:08.196Z,28.67
2023-02-05T15:54:38.144Z,25.42
2023-02-05T15:57:08.894Z,32.63
2023-02-05T15:59:37.372Z,23.95
2023-02-05T16:02:10.187Z,28.90
2023-02-05T16:04:41.022Z,21.27
2023-02-05T16:07:20.623Z,20.60
2023-02-05T16:09:52.181Z,22.52
2023-02-05T16:12:23.489Z,22.52
2023-02-05T16:15:00.193Z,34.58
2023-02-05T16:17:35.989Z,29.23
2023-02-05T16:20:18.083Z,24.15
2023-02-05T16:22:52.752Z,24.75
2023-02-05T16:25:30.578Z,30.33
2023-02-05T16:28:01.846Z,25.85
2023-02-05T16:30:34.678Z,31.13
2023-02-05T16:33:05.654Z,25.83
2023-02-05T16:35:38.482Z,24.30
2023-02-05T16:38:09.428Z,29.50
2023-02-05T16:40:43.356Z,32.72
2023-02-05T16:43:31.983Z,23.98
2023-02-05T16:46:23.409Z,27.95
2023-02-05T16:48:53.375Z,29.77
2023-02-05T16:51:38.533Z,35.35
2023-02-05T16:54:35.095Z,35.28
2023-02-05T16:57:08.178Z,34.00
2023-02-05T16:59:48.721Z,27.08
2023-02-05T17:02:31.834Z,32.10
2023-02-05T17:05:02.312Z,28.30
2023-02-05T17:07:32.799Z,31.40
2023-02-05T17:10:25.493Z,28.63
2023-02-05T17:12:58.644Z,31.63
2023-02-05T17:15:30.015Z,33.58
2023-02-05T17:18:04.535Z,28.10
2023-02-05T17:20:34.388Z,33.17
2023-02-05T17:23:11.170Z,30.90
2023-02-05T17:25:41.932Z,38.17
2023-02-05T17:28:15.740Z,31.23
2023-02-05T17:30:45.284Z,35.58
2023-02-05T17:33:18.539Z,32.60
2023-02-05T17:35:47.124Z,33.40
2023-02-05T17:38:17.391Z,27.05
2023-02-05T17:40:46.097Z,40.85
2023-02-05T17:43:14.820Z,32.70
2023-02-05T17:45:44.422Z,33.17
2023-02-05T17:48:12.929Z,30.98
2023-02-05T17:50:41.300Z,34.70
2023-02-05T17:53:14.121Z,35.72
2023-02-05T17:55:44.068Z,32.47
2023-02-05T17:58:12.470Z,30.02
2023-02-05T18:00:40.935Z,42.03
2023-02-05T18:03:09.510Z,34.83
2023-02-05T18:05:37.816Z,30.85
2023-02-05T18:08:07.506Z,37.15
2023-02-05T18:10:37.156Z,34.10
2023-02-05T18:13:07.016Z,41.53
2023-02-05T18:15:35.320Z,35.25
2023-02-05T18:18:03.899Z,32.50
2023-02-05T18:20:32.245Z,33.28
2023-02-05T18:23:00.421Z,33.83
2023-02-05T18:25:28.807Z,37.72
2023-02-05T18:27:57.309Z,35.42
2023-02-05T18:30:27.207Z,35.88
2023-02-05T18:32:55.525Z,39.60
2023-02-05T18:35:23.899Z,33.30
2023-02-05T18:37:52.109Z,28.50
2023-02-05T18:40:20.449Z,30.00
2023-02-05T18:42:52.099Z,34.05
2023-02-05T18:45:20.606Z,35.80
2023-02-05T18:47:50.445Z,39.65
2023-02-05T18:50:18.929Z,34.78
2023-02-05T18:52:48.251Z,36.85
2023-02-05T18:55:17.099Z,37.25
2023-02-05T18:57:45.608Z,35.25
2023-02-05T19:00:14.893Z,31.70
2023-02-05T19:02:43.420Z,37.58
2023-02-05T19:05:13.490Z,42.00
2023-02-05T19:07:41.760Z,27.50
2023-02-05T19:10:10.543Z,39.03
2023-02-05T19:12:38.907Z,40.85
2023-02-05T19:15:07.841Z,39.40
2023-02-05T19:17:36.227Z,42.83
2023-02-05T19:20:05.950Z,46.15
2023-02-05T19:22:35.543Z,38.22
2023-02-05T19:25:04.057Z,43.65
2023-02-05T19:27:32.614Z,36.60
2023-02-05T19:30:00.883Z,40.22
2023-02-05T19:32:29.389Z,36.15
2023-02-05T19:34:59.663Z,42.40
2023-02-05T19:37:27.804Z,39.17
2023-02-05T19:39:57.484Z,37.60
2023-02-05T19:42:27.308Z,41.72
2023-02-05T19:44:55.575Z,34.05
2023-02-05T19:47:23.908Z,43.92
2023-02-05T19:49:52.133Z,35.83
2023-02-05T19:52:20.612Z,36.67
2023-02-05T19:54:49.070Z,40.83
2023-02-05T19:57:18.784Z,36.58
2023-02-05T19:59:47.081Z,35.70
2023-02-05T20:02:19.451Z,39.58
2023-02-05T20:04:47.916Z,46.20
2023-02-05T20:07:16.202Z,34.92
2023-02-05T20:09:44.792Z,41.42
2023-02-05T20:12:13.224Z,32.40
2023-02-05T20:14:42.993Z,40.42
2023-02-05T20:17:16.672Z,43.50
2023-02-05T20:22:13.150Z,38.40
2023-02-05T20:24:41.662Z,35.75
2023-02-05T20:27:10.035Z,40.83
2023-02-05T20:29:55.813Z,32.65
2023-02-05T20:32:25.736Z,40.72
2023-02-05T20:34:54.074Z,35.97
2023-02-05T20:37:22.737Z,38.22
2023-02-05T20:39:51.210Z,31.60
2023-02-05T20:42:19.402Z,35.17
2023-02-05T20:44:48.023Z,38.88
2023-02-05T20:47:16.380Z,32.10
2023-02-05T20:49:46.199Z,36.58
2023-02-05T20:52:14.911Z,39.13
2023-02-05T20:54:43.432Z,40.03
2023-02-05T20:57:11.734Z,29.63
2023-02-05T20:59:40.096Z,38.67
2023-02-05T21:02:08.782Z,35.00
2023-02-05T21:04:38.052Z,39.40
2023-02-05T21:07:07.798Z,34.25
2023-02-05T21:09:36.334Z,35.05
2023-02-05T21:12:04.680Z,39.42
2023-02-05T21:14:33.153Z,37.42
2023-02-05T21:17:01.693Z,40.67
2023-02-05T21:19:29.987Z,34.05
2023-02-05T21:21:59.296Z,36.72
2023-02-05T21:24:29.539Z,39.20
2023-02-05T21:26:57.709Z,35.97
2023-02-05T21:29:25.952Z,31.40
2023-02-05T21:31:56.132Z,40.05
2023-02-05T21:34:26.432Z,41.15
2023-02-05T21:36:55.871Z,37.00
2023-02-05T21:39:25.700Z,32.55
2023-02-05T21:41:55.464Z,36.38
2023-02-05T21:44:24.108Z,37.58
2023-02-05T21:46:53.815Z,39.08
2023-02-05T21:49:22.184Z,39.10
2023-02-05T21:51:53.218Z,43.17
2023-02-05T21:54:25.483Z,31.58
2023-02-05T21:56:55.913Z,36.38
2023-02-05T21:59:24.655Z,39.83
2023-02-05T22:01:53.070Z,33.20
2023-02-05T22:04:21.514Z,34.40
2023-02-05T22:06:51.313Z,33.63
2023-02-05T22:09:19.567Z,36.75
2023-02-05T22:11:49.903Z,36.97
2023-02-05T22:14:20.524Z,34.38
2023-02-05T22:16:48.760Z,34.22
2023-02-05T22:19:17.085Z,38.13
2023-02-05T22:21:45.788Z,39.00
2023-02-05T22:24:16.571Z,34.40
2023-02-05T22:26:46.428Z,37.17
2023-02-05T22:29:16.975Z,33.58
2023-02-05T22:31:50.691Z,38.65
2023-02-05T22:34:19.107Z,41.17
2023-02-05T22:36:47.464Z,31.67
2023-02-05T22:39:16.003Z,36.50
2023-02-05T22:41:44.749Z,35.15
2023-02-05T22:44:13.604Z,40.72
2023-02-05T22:46:44.648Z,31.58
2023-02-05T22:49:16.249Z,34.63
2023-02-05T22:51:45.763Z,37.03
2023-02-05T22:54:15.941Z,44.45
2023-02-05T22:56:44.885Z,35.90
2023-02-05T22:59:13.667Z,36.13
2023-02-05T23:01:41.998Z,33.78
2023-02-05T23:04:11.074Z,35.55
2023-02-05T23:06:42.569Z,38.85
2023-02-05T23:09:13.836Z,35.20
2023-02-05T23:11:42.499Z,35.85
2023-02-05T23:14:12.436Z,29.90
2023-02-05T23:16:42.522Z,29.67
2023-02-05T23:19:13.941Z,35.53
2023-02-05T23:21:44.109Z,37.50
2023-02-05T23:24:13.073Z,39.05
2023-02-05T23:26:44.554Z,40.03
2023-02-05T23:29:14.778Z,44.42
2023-02-05T23:31:43.813Z,43.75
2023-02-05T23:34:12.367Z,32.70
2023-02-05T23:36:41.202Z,36.35
2023-02-05T23:39:10.890Z,38.83
2023-02-05T23:41:40.268Z,39.17
2023-02-05T23:44:12.557Z,39.22
2023-02-05T23:46:41.454Z,37.78
2023-02-05T23:49:09.682Z,35.10
2023-02-05T23:51:39.184Z,32.42
2023-02-05T23:54:08.921Z,33.30
2023-02-05T23:56:38.530Z,33.78
2023-02-05T23:59:07.697Z,38.28
